sensor_id;sensor_type;location;lat;lon;timestamp;P1;durP1;ratioP1;P2;durP2;ratioP2
32866;SDS011;19220;55.816;37.808;2023-04-24T03:01:52;34.85;;;6.68;;
32866;SDS011;19220;55.816;37.808;2023-04-24T03:04:17;21.95;;;7.10;;
32866;SDS011;19220;55.816;37.808;2023-04-24T03:06:45;19.40;;;6.68;;
32866;SDS011;19220;55.816;37.808;2023-04-24T03:09:12;17.23;;;8.05;;
32866;SDS011;19220;55.816;37.808;2023-04-24T03:11:38;20.25;;;7.53;;
32866;SDS011;19220;55.816;37.808;2023-04-24T03:14:03;25.10;;;6.90;;
32866;SDS011;19220;55.816;37.808;2023-04-24T03:16:29;18.65;;;7.22;;
32866;SDS011;19220;55.816;37.808;2023-04-24T03:18:54;20.30;;;7.30;;
32866;SDS011;19220;55.816;37.808;2023-04-24T03:21:22;18.02;;;6.88;;
32866;SDS011;19220;55.816;37.808;2023-04-24T03:23:47;20.35;;;7.25;;
32866;SDS011;19220;55.816;37.808;2023-04-24T03:26:13;18.08;;;7.00;;
32866;SDS011;19220;55.816;37.808;2023-04-24T03:28:50;17.42;;;7.22;;
32866;SDS011;19220;55.816;37.808;2023-04-24T03:31:16;17.10;;;6.78;;
32866;SDS011;19220;55.816;37.808;2023-04-24T03:33:42;16.55;;;8.38;;
32866;SDS011;19220;55.816;37.808;2023-04-24T03:36:07;19.13;;;8.30;;
32866;SDS011;19220;55.816;37.808;2023-04-24T03:38:38;17.33;;;7.80;;
32866;SDS011;19220;55.816;37.808;2023-04-24T03:41:18;15.88;;;7.57;;
32866;SDS011;19220;55.816;37.808;2023-04-24T03:43:48;22.88;;;8.25;;
32866;SDS011;19220;55.816;37.808;2023-04-24T03:46:14;17.13;;;8.57;;
32866;SDS011;19220;55.816;37.808;2023-04-24T03:48:45;13.27;;;7.38;;
32866;SDS011;19220;55.816;37.808;2023-04-24T03:51:12;17.05;;;8.00;;
32866;SDS011;19220;55.816;37.808;2023-04-24T03:53:41;22.40;;;7.85;;
32866;SDS011;19220;55.816;37.808;2023-04-24T03:56:08;15.60;;;8.23;;
32866;SDS011;19220;55.816;37.808;2023-04-24T03:58:34;20.85;;;7.80;;
32866;SDS011;19220;55.816;37.808;2023-04-24T04:01:00;19.42;;;8.15;;
32866;SDS011;19220;55.816;37.808;2023-04-24T04:03:44;19.02;;;7.60;;
32866;SDS011;19220;55.816;37.808;2023-04-24T04:06:09;24.27;;;8.07;;
32866;SDS011;19220;55.816;37.808;2023-04-24T04:08:37;23.15;;;8.00;;
32866;SDS011;19220;55.816;37.808;2023-04-24T04:11:03;20.90;;;8.30;;
32866;SDS011;19220;55.816;37.808;2023-04-24T04:13:28;20.48;;;7.55;;
32866;SDS011;19220;55.816;37.808;2023-04-24T04:15:54;18.50;;;7.75;;
32866;SDS011;19220;55.816;37.808;2023-04-24T04:18:20;19.80;;;7.78;;
32866;SDS011;19220;55.816;37.808;2023-04-24T04:20:45;21.00;;;7.93;;
32866;SDS011;19220;55.816;37.808;2023-04-24T04:23:14;16.92;;;8.27;;
32866;SDS011;19220;55.816;37.808;2023-04-24T04:25:53;14.32;;;8.15;;
32866;SDS011;19220;55.816;37.808;2023-04-24T04:28:23;18.75;;;7.97;;
32866;SDS011;19220;55.816;37.808;2023-04-24T04:30:51;18.63;;;8.05;;
32866;SDS011;19220;55.816;37.808;2023-04-24T04:33:20;18.75;;;8.50;;
32866;SDS011;19220;55.816;37.808;2023-04-24T04:35:46;12.43;;;7.22;;
32866;SDS011;19220;55.816;37.808;2023-04-24T04:38:14;16.60;;;8.10;;
32866;SDS011;19220;55.816;37.808;2023-04-24T04:40:53;19.20;;;8.32;;
32866;SDS011;19220;55.816;37.808;2023-04-24T04:43:20;16.83;;;8.10;;
32866;SDS011;19220;55.816;37.808;2023-04-24T04:45:50;20.48;;;8.32;;
32866;SDS011;19220;55.816;37.808;2023-04-24T04:48:36;19.30;;;7.45;;
32866;SDS011;19220;55.816;37.808;2023-04-24T04:51:04;21.20;;;7.20;;
32866;SDS011;19220;55.816;37.808;2023-04-24T04:53:31;20.20;;;6.85;;
32866;SDS011;19220;55.816;37.808;2023-04-24T04:55:57;15.55;;;6.93;;
32866;SDS011;19220;55.816;37.808;2023-04-24T04:58:28;15.60;;;6.38;;
32866;SDS011;19220;55.816;37.808;2023-04-24T05:00:57;19.58;;;6.90;;
32866;SDS011;19220;55.816;37.808;2023-04-24T05:03:32;13.93;;;6.40;;
32866;SDS011;19220;55.816;37.808;2023-04-24T05:06:02;15.82;;;6.57;;
32866;SDS011;19220;55.816;37.808;2023-04-24T05:08:31;12.55;;;7.20;;
32866;SDS011;19220;55.816;37.808;2023-04-24T05:10:58;18.48;;;7.10;;
32866;SDS011;19220;55.816;37.808;2023-04-24T05:13:26;17.50;;;6.35;;
32866;SDS011;19220;55.816;37.808;2023-04-24T05:15:51;20.25;;;6.93;;
32866;SDS011;19220;55.816;37.808;2023-04-24T05:18:17;9.07;;;5.78;;
32866;SDS011;19220;55.816;37.808;2023-04-24T05:20:43;16.23;;;6.65;;
32866;SDS011;19220;55.816;37.808;2023-04-24T05:23:09;19.20;;;6.18;;
32866;SDS011;19220;55.816;37.808;2023-04-24T05:25:37;14.90;;;6.35;;
32866;SDS011;19220;55.816;37.808;2023-04-24T05:28:08;12.88;;;5.72;;
32866;SDS011;19220;55.816;37.808;2023-04-24T05:30:33;12.02;;;6.30;;
32866;SDS011;19220;55.816;37.808;2023-04-24T05:33:00;25.40;;;6.85;;
32866;SDS011;19220;55.816;37.808;2023-04-24T05:35:25;18.20;;;6.72;;
32866;SDS011;19220;55.816;37.808;2023-04-24T05:37:51;16.70;;;6.43;;
32866;SDS011;19220;55.816;37.808;2023-04-24T05:40:17;16.83;;;6.50;;
32866;SDS011;19220;55.816;37.808;2023-04-24T05:42:42;17.25;;;6.75;;
32866;SDS011;19220;55.816;37.808;2023-04-24T05:45:08;13.52;;;6.60;;
32866;SDS011;19220;55.816;37.808;2023-04-24T05:47:36;16.20;;;6.65;;
32866;SDS011;19220;55.816;37.808;2023-04-24T05:50:02;14.00;;;6.35;;
32866;SDS011;19220;55.816;37.808;2023-04-24T05:52:30;10.32;;;6.10;;
32866;SDS011;19220;55.816;37.808;2023-04-24T05:54:55;12.00;;;5.68;;
32866;SDS011;19220;55.816;37.808;2023-04-24T05:57:24;9.80;;;5.70;;
32866;SDS011;19220;55.816;37.808;2023-04-24T05:59:58;17.63;;;5.90;;
32866;SDS011;19220;55.816;37.808;2023-04-24T06:02:24;8.98;;;5.22;;
32866;SDS011;19220;55.816;37.808;2023-04-24T06:04:51;8.10;;;5.60;;
32866;SDS011;19220;55.816;37.808;2023-04-24T06:07:17;8.88;;;5.70;;
32866;SDS011;19220;55.816;37.808;2023-04-24T06:09:43;17.42;;;5.82;;
32866;SDS011;19220;55.816;37.808;2023-04-24T06:12:10;12.05;;;5.65;;
32866;SDS011;19220;55.816;37.808;2023-04-24T06:14:54;12.40;;;5.38;;
32866;SDS011;19220;55.816;37.808;2023-04-24T06:17:26;11.80;;;5.65;;
32866;SDS011;19220;55.816;37.808;2023-04-24T06:19:51;10.70;;;4.88;;
32866;SDS011;19220;55.816;37.808;2023-04-24T06:22:18;9.35;;;5.00;;
32866;SDS011;19220;55.816;37.808;2023-04-24T06:24:43;15.50;;;5.57;;
32866;SDS011;19220;55.816;37.808;2023-04-24T06:27:09;13.85;;;4.53;;
32866;SDS011;19220;55.816;37.808;2023-04-24T06:29:35;11.00;;;4.75;;
32866;SDS011;19220;55.816;37.808;2023-04-24T06:32:01;15.63;;;4.53;;
32866;SDS011;19220;55.816;37.808;2023-04-24T06:34:26;9.55;;;4.78;;
32866;SDS011;19220;55.816;37.808;2023-04-24T06:36:52;10.68;;;4.57;;
32866;SDS011;19220;55.816;37.808;2023-04-24T06:39:18;11.57;;;4.55;;
32866;SDS011;19220;55.816;37.808;2023-04-24T06:41:43;14.80;;;4.95;;
32866;SDS011;19220;55.816;37.808;2023-04-24T06:44:18;10.73;;;4.53;;
32866;SDS011;19220;55.816;37.808;2023-04-24T06:46:43;14.68;;;4.57;;
32866;SDS011;19220;55.816;37.808;2023-04-24T06:49:09;22.13;;;4.43;;
32866;SDS011;19220;55.816;37.808;2023-04-24T06:51:35;9.80;;;3.90;;
32866;SDS011;19220;55.816;37.808;2023-04-24T06:54:00;7.90;;;4.00;;
32866;SDS011;19220;55.816;37.808;2023-04-24T06:56:27;8.48;;;4.30;;
32866;SDS011;19220;55.816;37.808;2023-04-24T06:58:54;11.00;;;4.78;;
32866;SDS011;19220;55.816;37.808;2023-04-24T07:01:20;11.40;;;4.20;;
32866;SDS011;19220;55.816;37.808;2023-04-24T07:03:46;8.30;;;4.38;;
32866;SDS011;19220;55.816;37.808;2023-04-24T07:06:11;10.05;;;4.18;;
32866;SDS011;19220;55.816;37.808;2023-04-24T07:08:38;7.93;;;3.72;;
32866;SDS011;19220;55.816;37.808;2023-04-24T07:11:04;12.05;;;4.35;;
32866;SDS011;19220;55.816;37.808;2023-04-24T07:13:29;11.18;;;4.15;;
32866;SDS011;19220;55.816;37.808;2023-04-24T07:15:55;14.02;;;4.18;;
32866;SDS011;19220;55.816;37.808;2023-04-24T07:18:21;14.20;;;3.50;;
32866;SDS011;19220;55.816;37.808;2023-04-24T07:20:47;9.02;;;3.40;;
32866;SDS011;19220;55.816;37.808;2023-04-24T07:23:15;23.52;;;3.95;;
32866;SDS011;19220;55.816;37.808;2023-04-24T07:25:41;14.05;;;4.05;;
32866;SDS011;19220;55.816;37.808;2023-04-24T07:28:07;13.75;;;4.00;;
32866;SDS011;19220;55.816;37.808;2023-04-24T07:30:33;12.13;;;3.70;;
32866;SDS011;19220;55.816;37.808;2023-04-24T07:32:58;12.15;;;4.18;;
32866;SDS011;19220;55.816;37.808;2023-04-24T07:35:25;6.30;;;3.67;;
32866;SDS011;19220;55.816;37.808;2023-04-24T07:37:51;9.95;;;4.07;;
32866;SDS011;19220;55.816;37.808;2023-04-24T07:40:17;5.40;;;3.05;;
32866;SDS011;19220;55.816;37.808;2023-04-24T07:42:42;8.15;;;3.40;;
32866;SDS011;19220;55.816;37.808;2023-04-24T07:45:09;8.93;;;3.30;;
32866;SDS011;19220;55.816;37.808;2023-04-24T07:47:34;10.02;;;3.22;;
32866;SDS011;19220;55.816;37.808;2023-04-24T07:50:02;9.43;;;3.58;;
32866;SDS011;19220;55.816;37.808;2023-04-24T07:52:29;15.35;;;3.83;;
32866;SDS011;19220;55.816;37.808;2023-04-24T07:54:55;8.80;;;3.70;;
32866;SDS011;19220;55.816;37.808;2023-04-24T07:57:24;3.92;;;3.13;;
32866;SDS011;19220;55.816;37.808;2023-04-24T07:59:50;7.95;;;3.10;;
32866;SDS011;19220;55.816;37.808;2023-04-24T08:02:15;5.25;;;3.33;;
32866;SDS011;19220;55.816;37.808;2023-04-24T08:04:41;11.70;;;3.25;;
32866;SDS011;19220;55.816;37.808;2023-04-24T08:07:07;7.18;;;3.65;;
32866;SDS011;19220;55.816;37.808;2023-04-24T08:09:33;4.57;;;3.40;;
32866;SDS011;19220;55.816;37.808;2023-04-24T08:11:58;10.95;;;3.30;;
32866;SDS011;19220;55.816;37.808;2023-04-24T08:14:24;5.45;;;3.13;;
32866;SDS011;19220;55.816;37.808;2023-04-24T08:16:50;5.75;;;3.20;;
32866;SDS011;19220;55.816;37.808;2023-04-24T08:19:15;4.03;;;3.22;;
32866;SDS011;19220;55.816;37.808;2023-04-24T08:21:41;6.38;;;3.47;;
32866;SDS011;19220;55.816;37.808;2023-04-24T08:24:06;5.38;;;3.22;;
32866;SDS011;19220;55.816;37.808;2023-04-24T08:26:33;4.75;;;3.22;;
32866;SDS011;19220;55.816;37.808;2023-04-24T08:28:59;8.43;;;3.45;;
32866;SDS011;19220;55.816;37.808;2023-04-24T08:31:25;17.92;;;3.38;;
32866;SDS011;19220;55.816;37.808;2023-04-24T08:33:51;7.22;;;3.20;;
32866;SDS011;19220;55.816;37.808;2023-04-24T08:36:17;4.65;;;2.90;;
32866;SDS011;19220;55.816;37.808;2023-04-24T08:38:42;7.03;;;3.13;;
32866;SDS011;19220;55.816;37.808;2023-04-24T08:41:08;7.93;;;3.03;;
32866;SDS011;19220;55.816;37.808;2023-04-24T08:43:34;6.45;;;3.70;;
32866;SDS011;19220;55.816;37.808;2023-04-24T08:46:03;7.25;;;3.42;;
32866;SDS011;19220;55.816;37.808;2023-04-24T08:48:29;12.95;;;3.55;;
32866;SDS011;19220;55.816;37.808;2023-04-24T08:50:56;4.05;;;3.13;;
32866;SDS011;19220;55.816;37.808;2023-04-24T08:53:22;6.32;;;3.35;;
32866;SDS011;19220;55.816;37.808;2023-04-24T08:55:48;4.82;;;3.47;;
32866;SDS011;19220;55.816;37.808;2023-04-24T08:58:16;6.90;;;3.17;;
32866;SDS011;19220;55.816;37.808;2023-04-24T09:00:42;5.68;;;3.10;;
32866;SDS011;19220;55.816;37.808;2023-04-24T09:03:15;4.40;;;2.72;;
32866;SDS011;19220;55.816;37.808;2023-04-24T09:05:42;9.73;;;3.30;;
32866;SDS011;19220;55.816;37.808;2023-04-24T09:08:11;7.60;;;3.10;;
32866;SDS011;19220;55.816;37.808;2023-04-24T09:10:39;4.88;;;2.92;;
32866;SDS011;19220;55.816;37.808;2023-04-24T09:13:05;5.75;;;3.05;;
32866;SDS011;19220;55.816;37.808;2023-04-24T09:15:31;6.43;;;3.30;;
32866;SDS011;19220;55.816;37.808;2023-04-24T09:17:57;10.30;;;3.20;;
32866;SDS011;19220;55.816;37.808;2023-04-24T09:20:22;7.85;;;3.30;;
32866;SDS011;19220;55.816;37.808;2023-04-24T09:22:48;4.70;;;2.95;;
32866;SDS011;19220;55.816;37.808;2023-04-24T09:25:13;6.00;;;3.17;;
32866;SDS011;19220;55.816;37.808;2023-04-24T09:27:42;4.75;;;2.90;;
32866;SDS011;19220;55.816;37.808;2023-04-24T09:30:09;8.15;;;3.28;;
32866;SDS011;19220;55.816;37.808;2023-04-24T09:32:35;6.20;;;3.20;;
32866;SDS011;19220;55.816;37.808;2023-04-24T09:35:08;3.85;;;3.08;;
32866;SDS011;19220;55.816;37.808;2023-04-24T09:37:46;5.45;;;3.05;;
32866;SDS011;19220;55.816;37.808;2023-04-24T09:40:16;3.97;;;2.97;;
32866;SDS011;19220;55.816;37.808;2023-04-24T09:42:51;6.82;;;3.10;;
32866;SDS011;19220;55.816;37.808;2023-04-24T09:45:18;7.38;;;3.15;;
32866;SDS011;19220;55.816;37.808;2023-04-24T09:47:43;4.72;;;3.35;;
32866;SDS011;19220;55.816;37.808;2023-04-24T09:50:18;12.13;;;3.75;;
32866;SDS011;19220;55.816;37.808;2023-04-24T09:52:45;11.52;;;3.28;;
32866;SDS011;19220;55.816;37.808;2023-04-24T09:55:18;4.28;;;2.90;;
32866;SDS011;19220;55.816;37.808;2023-04-24T10:00:17;11.93;;;3.30;;
32866;SDS011;19220;55.816;37.808;2023-04-24T10:02:43;4.50;;;2.83;;
32866;SDS011;19220;55.816;37.808;2023-04-24T10:05:10;6.57;;;3.25;;
32866;SDS011;19220;55.816;37.808;2023-04-24T10:07:37;10.30;;;3.03;;
32866;SDS011;19220;55.816;37.808;2023-04-24T10:10:03;8.52;;;2.97;;
32866;SDS011;19220;55.816;37.808;2023-04-24T10:12:29;3.85;;;2.70;;
32866;SDS011;19220;55.816;37.808;2023-04-24T10:14:55;9.23;;;3.50;;
32866;SDS011;19220;55.816;37.808;2023-04-24T10:17:21;8.00;;;3.00;;
32866;SDS011;19220;55.816;37.808;2023-04-24T10:19:48;6.50;;;2.80;;
32866;SDS011;19220;55.816;37.808;2023-04-24T10:22:14;5.60;;;2.50;;
32866;SDS011;19220;55.816;37.808;2023-04-24T10:24:42;3.70;;;2.75;;
32866;SDS011;19220;55.816;37.808;2023-04-24T10:27:08;12.35;;;3.15;;
32866;SDS011;19220;55.816;37.808;2023-04-24T10:29:34;4.78;;;2.60;;
32866;SDS011;19220;55.816;37.808;2023-04-24T10:32:01;3.63;;;2.78;;
32866;SDS011;19220;55.816;37.808;2023-04-24T10:34:26;8.00;;;3.00;;
32866;SDS011;19220;55.816;37.808;2023-04-24T10:36:53;3.55;;;2.53;;
32866;SDS011;19220;55.816;37.808;2023-04-24T10:39:20;9.90;;;3.08;;
32866;SDS011;19220;55.816;37.808;2023-04-24T10:41:48;5.15;;;3.10;;
32866;SDS011;19220;55.816;37.808;2023-04-24T10:44:14;8.07;;;3.22;;
32866;SDS011;19220;55.816;37.808;2023-04-24T10:46:47;4.10;;;3.20;;
32866;SDS011;19220;55.816;37.808;2023-04-24T10:49:17;5.63;;;3.10;;
32866;SDS011;19220;55.816;37.808;2023-04-24T10:51:53;3.40;;;2.88;;
32866;SDS011;19220;55.816;37.808;2023-04-24T10:54:29;4.05;;;2.90;;
32866;SDS011;19220;55.816;37.808;2023-04-24T10:59:39;4.10;;;3.00;;
32866;SDS011;19220;55.816;37.808;2023-04-24T11:02:06;4.43;;;3.25;;
32866;SDS011;19220;55.816;37.808;2023-04-24T11:04:33;5.78;;;2.90;;
32866;SDS011;19220;55.816;37.808;2023-04-24T11:07:00;6.57;;;3.17;;
32866;SDS011;19220;55.816;37.808;2023-04-24T11:09:27;4.72;;;2.83;;
32866;SDS011;19220;55.816;37.808;2023-04-24T11:12:02;7.55;;;3.22;;
32866;SDS011;19220;55.816;37.808;2023-04-24T11:14:28;10.25;;;3.08;;
32866;SDS011;19220;55.816;37.808;2023-04-24T11:16:54;7.00;;;3.60;;
32866;SDS011;19220;55.816;37.808;2023-04-24T11:19:26;4.95;;;2.97;;
32866;SDS011;19220;55.816;37.808;2023-04-24T11:21:54;4.93;;;3.00;;
32866;SDS011;19220;55.816;37.808;2023-04-24T11:24:24;3.38;;;2.80;;
32866;SDS011;19220;55.816;37.808;2023-04-24T11:26:54;6.15;;;3.03;;
32866;SDS011;19220;55.816;37.808;2023-04-24T11:29:20;4.63;;;2.92;;
32866;SDS011;19220;55.816;37.808;2023-04-24T11:31:47;10.95;;;2.88;;
32866;SDS011;19220;55.816;37.808;2023-04-24T11:34:15;9.27;;;2.58;;
32866;SDS011;19220;55.816;37.808;2023-04-24T11:36:45;6.65;;;3.00;;
32866;SDS011;19220;55.816;37.808;2023-04-24T11:39:11;13.60;;;3.20;;
32866;SDS011;19220;55.816;37.808;2023-04-24T11:41:37;4.07;;;2.80;;
32866;SDS011;19220;55.816;37.808;2023-04-24T11:44:03;8.55;;;2.67;;
32866;SDS011;19220;55.816;37.808;2023-04-24T11:46:29;4.95;;;2.78;;
32866;SDS011;19220;55.816;37.808;2023-04-24T11:48:56;5.00;;;2.55;;
32866;SDS011;19220;55.816;37.808;2023-04-24T11:51:22;3.30;;;2.47;;
32866;SDS011;19220;55.816;37.808;2023-04-24T11:53:48;10.70;;;3.25;;
32866;SDS011;19220;55.816;37.808;2023-04-24T11:56:17;6.45;;;2.90;;
32866;SDS011;19220;55.816;37.808;2023-04-24T11:58:44;4.78;;;2.45;;
32866;SDS011;19220;55.816;37.808;2023-04-24T12:01:10;5.35;;;2.63;;
32866;SDS011;19220;55.816;37.808;2023-04-24T12:03:35;6.60;;;2.80;;
32866;SDS011;19220;55.816;37.808;2023-04-24T12:06:07;3.30;;;2.70;;
32866;SDS011;19220;55.816;37.808;2023-04-24T12:08:33;6.28;;;2.70;;
32866;SDS011;19220;55.816;37.808;2023-04-24T12:11:00;3.03;;;2.55;;
32866;SDS011;19220;55.816;37.808;2023-04-24T12:13:26;3.35;;;2.58;;
32866;SDS011;19220;55.816;37.808;2023-04-24T12:15:52;2.53;;;2.20;;
32866;SDS011;19220;55.816;37.808;2023-04-24T12:18:17;3.53;;;3.00;;
32866;SDS011;19220;55.816;37.808;2023-04-24T12:20:43;5.22;;;2.58;;
32866;SDS011;19220;55.816;37.808;2023-04-24T12:23:09;4.20;;;2.55;;
32866;SDS011;19220;55.816;37.808;2023-04-24T12:25:34;6.22;;;2.80;;
32866;SDS011;19220;55.816;37.808;2023-04-24T12:30:29;6.18;;;2.83;;
32866;SDS011;19220;55.816;37.808;2023-04-24T12:32:56;5.13;;;2.58;;
32866;SDS011;19220;55.816;37.808;2023-04-24T12:35:22;7.72;;;2.47;;
32866;SDS011;19220;55.816;37.808;2023-04-24T12:37:48;10.68;;;2.53;;
32866;SDS011;19220;55.816;37.808;2023-04-24T12:40:14;6.05;;;2.58;;
32866;SDS011;19220;55.816;37.808;2023-04-24T12:42:44;4.25;;;2.58;;
32866;SDS011;19220;55.816;37.808;2023-04-24T12:45:10;4.40;;;2.33;;
32866;SDS011;19220;55.816;37.808;2023-04-24T12:47:37;11.68;;;2.67;;
32866;SDS011;19220;55.816;37.808;2023-04-24T12:50:03;5.38;;;2.35;;
32866;SDS011;19220;55.816;37.808;2023-04-24T12:52:29;7.65;;;2.30;;
32866;SDS011;19220;55.816;37.808;2023-04-24T12:54:56;7.75;;;2.72;;
32866;SDS011;19220;55.816;37.808;2023-04-24T12:57:25;5.65;;;2.72;;
32866;SDS011;19220;55.816;37.808;2023-04-24T12:59:55;5.13;;;2.55;;
32866;SDS011;19220;55.816;37.808;2023-04-24T13:02:27;6.22;;;2.63;;
32866;SDS011;19220;55.816;37.808;2023-04-24T13:04:54;9.50;;;2.35;;
32866;SDS011;19220;55.816;37.808;2023-04-24T13:07:20;5.55;;;2.50;;
32866;SDS011;19220;55.816;37.808;2023-04-24T13:09:48;9.18;;;2.55;;
32866;SDS011;19220;55.816;37.808;2023-04-24T13:12:14;6.53;;;2.50;;
32866;SDS011;19220;55.816;37.808;2023-04-24T13:14:40;6.18;;;2.55;;
32866;SDS011;19220;55.816;37.808;2023-04-24T13:17:06;6.65;;;2.75;;
32866;SDS011;19220;55.816;37.808;2023-04-24T13:19:36;5.13;;;2.38;;
32866;SDS011;19220;55.816;37.808;2023-04-24T13:22:02;8.73;;;2.50;;
32866;SDS011;19220;55.816;37.808;2023-04-24T13:24:27;5.35;;;2.25;;
32866;SDS011;19220;55.816;37.808;2023-04-24T13:26:53;4.07;;;2.30;;
32866;SDS011;19220;55.816;37.808;2023-04-24T13:29:19;5.35;;;2.50;;
32866;SDS011;19220;55.816;37.808;2023-04-24T13:31:49;4.82;;;2.42;;
32866;SDS011;19220;55.816;37.808;2023-04-24T13:34:15;7.50;;;2.60;;
32866;SDS011;19220;55.816;37.808;2023-04-24T13:36:41;9.90;;;2.38;;
32866;SDS011;19220;55.816;37.808;2023-04-24T13:39:07;8.40;;;2.53;;
32866;SDS011;19220;55.816;37.808;2023-04-24T13:41:33;3.17;;;2.30;;
32866;SDS011;19220;55.816;37.808;2023-04-24T13:43:59;3.00;;;2.15;;
32866;SDS011;19220;55.816;37.808;2023-04-24T13:46:25;13.38;;;2.85;;
32866;SDS011;19220;55.816;37.808;2023-04-24T13:48:51;10.95;;;2.60;;
32866;SDS011;19220;55.816;37.808;2023-04-24T13:51:17;5.05;;;2.50;;
32866;SDS011;19220;55.816;37.808;2023-04-24T13:53:43;5.80;;;2.58;;
32866;SDS011;19220;55.816;37.808;2023-04-24T13:56:08;6.43;;;2.85;;
32866;SDS011;19220;55.816;37.808;2023-04-24T13:58:35;4.18;;;2.67;;
32866;SDS011;19220;55.816;37.808;2023-04-24T14:01:02;9.05;;;2.70;;
32866;SDS011;19220;55.816;37.808;2023-04-24T14:03:28;10.18;;;2.33;;
32866;SDS011;19220;55.816;37.808;2023-04-24T14:05:54;7.57;;;2.60;;
32866;SDS011;19220;55.816;37.808;2023-04-24T14:08:20;3.53;;;2.30;;
32866;SDS011;19220;55.816;37.808;2023-04-24T14:10:45;5.70;;;2.50;;
32866;SDS011;19220;55.816;37.808;2023-04-24T14:13:11;6.20;;;2.10;;
32866;SDS011;19220;55.816;37.808;2023-04-24T14:15:37;7.80;;;2.80;;
32866;SDS011;19220;55.816;37.808;2023-04-24T14:18:03;4.30;;;2.25;;
32866;SDS011;19220;55.816;37.808;2023-04-24T14:20:28;5.30;;;2.60;;
32866;SDS011;19220;55.816;37.808;2023-04-24T14:22:54;5.82;;;2.20;;
32866;SDS011;19220;55.816;37.808;2023-04-24T14:25:20;4.72;;;2.00;;
32866;SDS011;19220;55.816;37.808;2023-04-24T14:27:45;7.82;;;2.05;;
32866;SDS011;19220;55.816;37.808;2023-04-24T14:30:12;5.05;;;2.00;;
32866;SDS011;19220;55.816;37.808;2023-04-24T14:32:38;3.05;;;2.20;;
32866;SDS011;19220;55.816;37.808;2023-04-24T14:35:04;4.47;;;2.67;;
32866;SDS011;19220;55.816;37.808;2023-04-24T14:37:30;9.15;;;2.15;;
32866;SDS011;19220;55.816;37.808;2023-04-24T14:39:56;3.60;;;2.20;;
32866;SDS011;19220;55.816;37.808;2023-04-24T14:42:21;9.82;;;2.88;;
32866;SDS011;19220;55.816;37.808;2023-04-24T14:44:47;7.97;;;2.28;;
32866;SDS011;19220;55.816;37.808;2023-04-24T14:47:13;6.80;;;2.00;;
32866;SDS011;19220;55.816;37.808;2023-04-24T14:49:38;4.20;;;2.35;;
32866;SDS011;19220;55.816;37.808;2023-04-24T14:52:04;5.93;;;2.25;;
32866;SDS011;19220;55.816;37.808;2023-04-24T14:54:30;4.63;;;2.33;;
32866;SDS011;19220;55.816;37.808;2023-04-24T14:56:56;5.25;;;2.40;;
32866;SDS011;19220;55.816;37.808;2023-04-24T14:59:24;5.45;;;2.20;;
32866;SDS011;19220;55.816;37.808;2023-04-24T15:01:50;8.10;;;2.22;;
32866;SDS011;19220;55.816;37.808;2023-04-24T15:04:18;5.03;;;2.38;;
32866;SDS011;19220;55.816;37.808;2023-04-24T15:06:43;4.22;;;2.60;;
32866;SDS011;19220;55.816;37.808;2023-04-24T15:09:09;5.55;;;2.30;;
32866;SDS011;19220;55.816;37.808;2023-04-24T15:11:34;3.38;;;2.25;;
32866;SDS011;19220;55.816;37.808;2023-04-24T15:14:00;5.45;;;2.25;;
32866;SDS011;19220;55.816;37.808;2023-04-24T15:16:26;5.90;;;2.22;;
32866;SDS011;19220;55.816;37.808;2023-04-24T15:18:51;5.70;;;2.33;;
32866;SDS011;19220;55.816;37.808;2023-04-24T15:21:17;4.63;;;2.33;;
32866;SDS011;19220;55.816;37.808;2023-04-24T15:23:43;7.90;;;2.50;;
32866;SDS011;19220;55.816;37.808;2023-04-24T15:26:08;6.88;;;2.42;;
32866;SDS011;19220;55.816;37.808;2023-04-24T15:28:34;5.28;;;2.40;;
32866;SDS011;19220;55.816;37.808;2023-04-24T15:31:00;7.72;;;2.40;;
32866;SDS011;19220;55.816;37.808;2023-04-24T15:33:25;7.10;;;2.50;;
32866;SDS011;19220;55.816;37.808;2023-04-24T15:35:51;7.68;;;2.38;;
32866;SDS011;19220;55.816;37.808;2023-04-24T15:38:17;8.18;;;2.25;;
32866;SDS011;19220;55.816;37.808;2023-04-24T15:40:42;10.25;;;2.38;;
32866;SDS011;19220;55.816;37.808;2023-04-24T15:43:09;5.85;;;3.03;;
32866;SDS011;19220;55.816;37.808;2023-04-24T15:45:36;6.68;;;2.50;;
32866;SDS011;19220;55.816;37.808;2023-04-24T15:48:01;8.32;;;2.50;;
32866;SDS011;19220;55.816;37.808;2023-04-24T15:50:27;7.07;;;2.40;;
32866;SDS011;19220;55.816;37.808;2023-04-24T15:52:53;9.38;;;3.22;;
32866;SDS011;19220;55.816;37.808;2023-04-24T15:55:19;6.47;;;2.10;;
32866;SDS011;19220;55.816;37.808;2023-04-24T15:57:44;18.95;;;2.90;;
32866;SDS011;19220;55.816;37.808;2023-04-24T16:00:10;6.97;;;2.17;;
32866;SDS011;19220;55.816;37.808;2023-04-24T16:02:39;5.10;;;2.55;;
32866;SDS011;19220;55.816;37.808;2023-04-24T16:05:05;3.70;;;2.40;;
32866;SDS011;19220;55.816;37.808;2023-04-24T16:07:32;7.55;;;2.65;;
32866;SDS011;19220;55.816;37.808;2023-04-24T16:09:58;7.25;;;2.30;;
32866;SDS011;19220;55.816;37.808;2023-04-24T16:12:24;6.25;;;2.28;;
32866;SDS011;19220;55.816;37.808;2023-04-24T16:14:52;4.97;;;2.50;;
32866;SDS011;19220;55.816;37.808;2023-04-24T16:17:18;6.90;;;2.45;;
32866;SDS011;19220;55.816;37.808;2023-04-24T16:19:43;7.25;;;2.55;;
32866;SDS011;19220;55.816;37.808;2023-04-24T16:22:09;5.97;;;2.65;;
32866;SDS011;19220;55.816;37.808;2023-04-24T16:24:35;8.38;;;3.15;;
32866;SDS011;19220;55.816;37.808;2023-04-24T16:27:01;6.90;;;2.65;;
32866;SDS011;19220;55.816;37.808;2023-04-24T16:29:27;6.43;;;2.22;;
32866;SDS011;19220;55.816;37.808;2023-04-24T16:31:53;4.28;;;3.08;;
32866;SDS011;19220;55.816;37.808;2023-04-24T16:34:19;6.60;;;2.80;;
32866;SDS011;19220;55.816;37.808;2023-04-24T16:36:44;9.02;;;2.67;;
32866;SDS011;19220;55.816;37.808;2023-04-24T16:39:10;7.95;;;3.45;;
32866;SDS011;19220;55.816;37.808;2023-04-24T16:41:36;6.88;;;3.25;;
32866;SDS011;19220;55.816;37.808;2023-04-24T16:44:02;9.10;;;3.03;;
32866;SDS011;19220;55.816;37.808;2023-04-24T16:46:27;10.90;;;3.60;;
32866;SDS011;19220;55.816;37.808;2023-04-24T16:48:53;9.20;;;2.78;;
32866;SDS011;19220;55.816;37.808;2023-04-24T16:51:19;13.40;;;4.13;;
32866;SDS011;19220;55.816;37.808;2023-04-24T16:53:45;11.18;;;3.15;;
32866;SDS011;19220;55.816;37.808;2023-04-24T16:56:10;10.40;;;3.90;;
32866;SDS011;19220;55.816;37.808;2023-04-24T16:58:38;13.73;;;3.70;;
32866;SDS011;19220;55.816;37.808;2023-04-24T17:01:03;7.45;;;3.40;;
32866;SDS011;19220;55.816;37.808;2023-04-24T17:03:29;6.45;;;3.33;;
32866;SDS011;19220;55.816;37.808;2023-04-24T17:05:55;19.30;;;3.63;;
32866;SDS011;19220;55.816;37.808;2023-04-24T17:08:20;11.32;;;3.70;;
32866;SDS011;19220;55.816;37.808;2023-04-24T17:10:48;9.98;;;3.38;;
32866;SDS011;19220;55.816;37.808;2023-04-24T17:13:13;14.93;;;4.78;;
32866;SDS011;19220;55.816;37.808;2023-04-24T17:15:40;9.55;;;3.35;;
32866;SDS011;19220;55.816;37.808;2023-04-24T17:18:06;12.38;;;4.60;;
32866;SDS011;19220;55.816;37.808;2023-04-24T17:20:31;9.25;;;3.70;;
32866;SDS011;19220;55.816;37.808;2023-04-24T17:22:57;9.50;;;4.63;;
32866;SDS011;19220;55.816;37.808;2023-04-24T17:25:23;11.43;;;3.85;;
32866;SDS011;19220;55.816;37.808;2023-04-24T17:27:48;10.27;;;4.45;;
32866;SDS011;19220;55.816;37.808;2023-04-24T17:30:14;7.90;;;3.95;;
32866;SDS011;19220;55.816;37.808;2023-04-24T17:32:41;12.57;;;4.88;;
32866;SDS011;19220;55.816;37.808;2023-04-24T17:35:07;12.93;;;4.68;;